Mandalena — SW5980 — position and weather

sailwx.info

Track history (hours):
 
Tides and Currents Weather Stations Pressure Air Temp Water Temp Dewpoint Dewpoint Depression Visibility Wind Speed Wind Dir Waves Ship Positions

Mandalena

Last reported at 2018-Apr-24 10:57 UTC. Time now 2018-Apr-24 22:23 UTC.
Position N 37°22' E 023°28'.

Length 44 m; draft 2.5 m.

Type: Ship (hazmat cat C). MMSI: 237016600.

Date/timePositionNaut miles runAvg speedWind from/ knotsBaromVisibWave heightAir tempDewpointWater temp
2018-Apr-24 10:57N 37°22' E 023°28'1 0.3
2018-Apr-24 09:17N 37°21' E 023°27'1 0.8
2018-Apr-24 08:27N 37°21' E 023°27'  
2018-Apr-20 16:19N 37°39' E 023°38'412.4
2018-Apr-20 16:00N 37°43' E 023°36'713.7
2018-Apr-20 15:30N 37°50' E 023°36'713.4
2018-Apr-20 15:00N 37°56' E 023°39'0 0.4
2018-Apr-20 14:30N 37°56' E 023°39'0 0.0
2018-Apr-20 14:00N 37°56' E 023°39'0 0.0
2018-Apr-20 13:30N 37°56' E 023°39'0 0.0
2018-Apr-20 13:00N 37°56' E 023°39'0 0.0
2018-Apr-20 12:30N 37°56' E 023°39'0 0.0
2018-Apr-20 12:00N 37°56' E 023°39'0 0.0
2018-Apr-20 11:30N 37°56' E 023°39'0 0.0
2018-Apr-20 11:00N 37°56' E 023°39'0 0.0
2018-Apr-20 10:30N 37°56' E 023°39'0 0.0
2018-Apr-20 10:00N 37°56' E 023°39'0 0.0
2018-Apr-20 09:30N 37°56' E 023°39'0 0.0
2018-Apr-20 09:00N 37°56' E 023°39'0 0.0
2018-Apr-20 08:30N 37°56' E 023°39'0 0.0
2018-Apr-20 08:00N 37°56' E 023°39'0 0.0
2018-Apr-20 07:30N 37°56' E 023°39'0 0.6
2018-Apr-20 07:00N 37°56' E 023°39'713.9
2018-Apr-20 06:30N 37°49' E 023°37'713.7
2018-Apr-20 06:00N 37°42' E 023°35'713.7
2018-Apr-20 05:29N 37°35' E 023°34'713.6
2018-Apr-20 04:58N 37°28' E 023°32'8 0.2
2018-Apr-18 10:05N 37°21' E 023°27'0 0.8
2018-Apr-18 10:00N 37°21' E 023°27'3 0.3
2018-Apr-17 23:34N 37°23' E 023°23'110.1
2018-Apr-17 23:28N 37°23' E 023°24'13 9.7
2018-Apr-17 22:06N 37°31' E 023°37'1210.5
2018-Apr-17 20:55N 37°43' E 023°44'4 9.7
2018-Apr-17 20:28N 37°47' E 023°47'2 3.9
2018-Apr-17 20:01N 37°48' E 023°47'612.1
2018-Apr-17 19:30N 37°45' E 023°40'612.9
2018-Apr-17 19:00N 37°42' E 023°33'5 0.8
2018-Apr-17 13:12N 37°41' E 023°27'1 5.6
2018-Apr-17 12:57N 37°40' E 023°28'4 8.0
2018-Apr-17 12:30N 37°42' E 023°32'2 4.7
2018-Apr-17 12:00N 37°45' E 023°32'4 8.8
2018-Apr-17 11:30N 37°45' E 023°38'610.8
2018-Apr-17 10:59N 37°48' E 023°44'2 0.3
2018-Apr-17 05:08N 37°48' E 023°47'2 8.4
2018-Apr-17 04:57N 37°47' E 023°47'4 9.1
2018-Apr-17 04:29N 37°43' E 023°44'7 9.2
2018-Apr-17 03:40N 37°36' E 023°40'18 8.5
2018-Apr-17 01:31N 37°22' E 023°26'1 8.7
2018-Apr-17 01:25N 37°21' E 023°25'  
Track history (hours):
 
Tides and Currents Weather Stations Pressure Air Temp Water Temp Dewpoint Dewpoint Depression Visibility Wind Speed Wind Dir Waves Ship Positions

Mandalena

Last reported at 2018-Apr-24 10:57 UTC. Time now 2018-Apr-24 22:23 UTC.
Position N 37°22' E 023°28'.

Length 44 m; draft 2.5 m.

Type: Ship (hazmat cat C). MMSI: 237016600.

Date/timePositionNaut miles runAvg speedWind from/ knotsBaromVisibWave heightAir tempDewpointWater temp
2018-Apr-24 10:57N 37°22' E 023°28'1 0.3
2018-Apr-24 09:17N 37°21' E 023°27'1 0.8
2018-Apr-24 08:27N 37°21' E 023°27'  
2018-Apr-20 16:19N 37°39' E 023°38'412.4
2018-Apr-20 16:00N 37°43' E 023°36'713.7
2018-Apr-20 15:30N 37°50' E 023°36'713.4
2018-Apr-20 15:00N 37°56' E 023°39'0 0.4
2018-Apr-20 14:30N 37°56' E 023°39'0 0.0
2018-Apr-20 14:00N 37°56' E 023°39'0 0.0
2018-Apr-20 13:30N 37°56' E 023°39'0 0.0
2018-Apr-20 13:00N 37°56' E 023°39'0 0.0
2018-Apr-20 12:30N 37°56' E 023°39'0 0.0
2018-Apr-20 12:00N 37°56' E 023°39'0 0.0
2018-Apr-20 11:30N 37°56' E 023°39'0 0.0
2018-Apr-20 11:00N 37°56' E 023°39'0 0.0
2018-Apr-20 10:30N 37°56' E 023°39'0 0.0
2018-Apr-20 10:00N 37°56' E 023°39'0 0.0
2018-Apr-20 09:30N 37°56' E 023°39'0 0.0
2018-Apr-20 09:00N 37°56' E 023°39'0 0.0
2018-Apr-20 08:30N 37°56' E 023°39'0 0.0
2018-Apr-20 08:00N 37°56' E 023°39'0 0.0
2018-Apr-20 07:30N 37°56' E 023°39'0 0.6
2018-Apr-20 07:00N 37°56' E 023°39'713.9
2018-Apr-20 06:30N 37°49' E 023°37'713.7
2018-Apr-20 06:00N 37°42' E 023°35'713.7
2018-Apr-20 05:29N 37°35' E 023°34'713.6
2018-Apr-20 04:58N 37°28' E 023°32'8 0.2
2018-Apr-18 10:05N 37°21' E 023°27'0 0.8
2018-Apr-18 10:00N 37°21' E 023°27'3 0.3
2018-Apr-17 23:34N 37°23' E 023°23'110.1
2018-Apr-17 23:28N 37°23' E 023°24'13 9.7
2018-Apr-17 22:06N 37°31' E 023°37'1210.5
2018-Apr-17 20:55N 37°43' E 023°44'4 9.7
2018-Apr-17 20:28N 37°47' E 023°47'2 3.9
2018-Apr-17 20:01N 37°48' E 023°47'612.1
2018-Apr-17 19:30N 37°45' E 023°40'612.9
2018-Apr-17 19:00N 37°42' E 023°33'5 0.8
2018-Apr-17 13:12N 37°41' E 023°27'1 5.6
2018-Apr-17 12:57N 37°40' E 023°28'4 8.0
2018-Apr-17 12:30N 37°42' E 023°32'2 4.7
2018-Apr-17 12:00N 37°45' E 023°32'4 8.8
2018-Apr-17 11:30N 37°45' E 023°38'610.8
2018-Apr-17 10:59N 37°48' E 023°44'2 0.3
2018-Apr-17 05:08N 37°48' E 023°47'2 8.4
2018-Apr-17 04:57N 37°47' E 023°47'4 9.1
2018-Apr-17 04:29N 37°43' E 023°44'7 9.2
2018-Apr-17 03:40N 37°36' E 023°40'18 8.5
2018-Apr-17 01:31N 37°22' E 023°26'1 8.7
2018-Apr-17 01:25N 37°21' E 023°25'  

Dump ship's entire track history